Aviation Digital Data Service (ADDS)

Output produced by METARs form (2306 UTC 15 July 2018)
found at http://www.aviationweather.gov/adds/metars/
 
LHBP 152300Z 32004KT CAVOK 15/12 Q1013 NOSIG
LHBP 152230Z 31004KT CAVOK 17/13 Q1013 NOSIG
LHBP 152200Z VRB03KT CAVOK 15/13 Q1013 NOSIG
LHBP 152130Z VRB03KT CAVOK 17/17 Q1013 NOSIG
LHBP 152100Z VRB03KT CAVOK 17/15 Q1013 NOSIG
LHBP 152030Z VRB03KT CAVOK 19/14 Q1013 NOSIG
TAF LHBP 151715Z 1518/1618 34007KT CAVOK 
     BECMG 1607/1609 31014KT
       
LHDC 152247Z 31006KT 8000 SHRA BKN040TCU SCT083 19/15 Q1013
LHDC 152245Z 30006KT 8000 SHRA BKN040TCU SCT083 19/15 Q1013 NOSIG
LHDC 152215Z 05001KT 9999 FEW043TCU 18/14 Q1013 NOSIG
LHDC 152145Z 22001KT CAVOK 19/14 Q1013 NOSIG
LHDC 152115Z 18002KT 9999 FEW040TCU SCT083 19/14 Q1013 NOSIG
LHDC 152045Z 11001KT 9999 FEW040TCU SCT083 20/14 Q1013 NOSIG
LHDC 152015Z 09004KT CAVOK 20/14 Q1013 NOSIG
TAF LHDC 152015Z 1521/1606 VRB03KT CAVOK 
     BECMG 1600/1603 SCT040 BKN070
       
LHKE 152245Z 32006KT 280V340 CAVOK 18/12 Q1013 NOSIG RMK BLU
LHKE 152215Z 30006KT CAVOK 17/12 Q1013 NOSIG RMK BLU
LHKE 152145Z 30006KT CAVOK 19/12 Q1013 NOSIG RMK BLU
LHKE 152115Z 32006KT CAVOK 19/13 Q1012 NOSIG RMK BLU
LHKE 152045Z 32002KT CAVOK 19/13 Q1012 NOSIG RMK BLU
LHKE 152015Z 00000KT CAVOK 20/13 Q1012 NOSIG RMK BLU
TAF LHKE 152015Z 1521/1606 30005KT CAVOK
       
LHPA 152245Z 16004KT CAVOK 17/14 Q1014 NOSIG RMK BLU
LHPA 152215Z 17004KT CAVOK 17/15 Q1014 NOSIG RMK BLU
LHPA 152145Z 17004KT CAVOK 17/15 Q1014 NOSIG RMK BLU
LHPA 152115Z 18002KT CAVOK 17/15 Q1014 NOSIG RMK BLU
LHPA 152045Z 16002KT CAVOK 18/15 Q1014 NOSIG RMK BLU
LHPA 152015Z 18002KT CAVOK 18/16 Q1014 NOSIG RMK BLU
TAF LHPA 151715Z 1518/1618 21005KT CAVOK 
     TEMPO 1600/1605 VRB02KT 8000 MIBCFG NSC 
     BECMG 1608/1611 33005KT 9999 SCT040 
     PROB40 
     TEMPO 1611/1618 VRB16G28KT 7000 SHRA TSRA SCT040CB SCT060
       
TAF LHPP 151415Z 1515/1524 31006KT CAVOK 
     PROB30 
     TEMPO 1515/1518 VRB12G24KT 8000 -SHRA FEW040CB BKN050
       
LHPR 152245Z AUTO VRB01KT CAVOK 15/13 Q1014 RMK BLU
LHPR 152215Z AUTO VRB01KT CAVOK 16/14 Q1014 RMK BLU
LHPR 152145Z AUTO 00000KT CAVOK 16/14 Q1014 RMK BLU
LHPR 152115Z AUTO 21002KT CAVOK 17/14 Q1013 RMK BLU
LHPR 152045Z AUTO VRB02KT CAVOK 19/14 Q1013 RMK BLU
LHPR 152015Z AUTO 25007KT CAVOK 21/14 Q1013 RMK BLU
TAF LHPR 151715Z 1518/1603 32007KT CAVOK 
     BECMG 1519/1522 VRB03KT
       
LHSN 152245Z 24002KT CAVOK 18/13 Q1012 NOSIG RMK BLU
LHSN 152215Z 00000KT CAVOK 18/13 Q1012 NOSIG RMK BLU
LHSN 152145Z 00000KT CAVOK 19/13 Q1012 NOSIG RMK BLU
LHSN 152115Z 23002KT CAVOK 20/13 Q1012 NOSIG RMK BLU
LHSN 152045Z 00000KT CAVOK 20/13 Q1012 NOSIG RMK BLU
LHSN 152015Z 22004KT CAVOK 21/13 Q1012 NOSIG RMK BLU
TAF LHSN 152015Z 1521/1606 32005KT CAVOK
       
LHUD 152245Z 27002KT CAVOK 16/14 Q1013
LHUD 152145Z 31003KT CAVOK 17/14 Q1013
LHUD 152045Z 26003KT CAVOK 18/15 Q1013